Time;durP1;ratioP1;P1;durP2;ratioP2;P2;SDS_P1;SDS_P2;PMS_P1;PMS_P2;Temp;Humidity;BMP_temperature;BMP_pressure;BME280_temperature;BME280_humidity;BME280_pressure;Samples;Min_cycle;Max_cycle;Signal;HPM_P1;HPM_P2
2022/04/25 00:00:12;;;;;;;9.20;7.60;;;6.40;99.90;;;;;;483989;246;27597;-70
2022/04/25 00:02:13;;;;;;;8.65;7.28;;;6.40;99.90;;;;;;483977;246;28864;-75
2022/04/25 00:04:16;;;;;;;7.40;6.70;;;6.40;99.90;;;;;;484036;246;27492;-70
2022/04/25 00:06:17;;;;;;;7.43;6.62;;;6.30;99.90;;;;;;484024;246;27691;-70
2022/04/25 00:08:18;;;;;;;7.60;6.20;;;6.30;99.90;;;;;;484028;246;27980;-71
2022/04/25 00:10:19;;;;;;;8.23;7.43;;;6.30;99.90;;;;;;484029;242;28179;-71
2022/04/25 00:12:21;;;;;;;8.73;7.55;;;6.30;99.90;;;;;;484024;246;28814;-71
2022/04/25 00:14:22;;;;;;;7.73;6.93;;;6.30;99.90;;;;;;484018;246;27511;-72
2022/04/25 00:16:24;;;;;;;7.90;7.10;;;6.20;99.90;;;;;;484042;246;28818;-71
2022/04/25 00:18:25;;;;;;;8.70;7.80;;;6.20;99.90;;;;;;484019;246;28887;-71
2022/04/25 00:20:26;;;;;;;8.27;7.27;;;6.20;99.90;;;;;;484050;246;27576;-74
2022/04/25 00:22:27;;;;;;;11.45;7.93;;;6.20;99.90;;;;;;484041;246;28078;-71
2022/04/25 00:24:28;;;;;;;8.45;7.53;;;6.10;99.90;;;;;;484014;245;27948;-71
2022/04/25 00:26:29;;;;;;;8.10;7.28;;;6.10;99.90;;;;;;484014;246;27937;-70
2022/04/25 00:28:31;;;;;;;8.77;7.85;;;6.00;99.90;;;;;;483993;246;27505;-71
2022/04/25 00:30:32;;;;;;;7.45;6.72;;;6.00;99.90;;;;;;484028;246;27528;-71
2022/04/25 00:32:33;;;;;;;9.88;8.13;;;5.90;99.90;;;;;;484010;246;27480;-70
2022/04/25 00:34:35;;;;;;;8.05;7.25;;;5.90;99.90;;;;;;484010;246;27540;-72
2022/04/25 00:36:36;;;;;;;7.87;7.10;;;5.80;99.90;;;;;;483989;246;27564;-71
2022/04/25 00:38:37;;;;;;;7.40;6.70;;;5.80;99.90;;;;;;483979;246;27952;-70
2022/04/25 00:40:38;;;;;;;8.35;7.45;;;5.80;99.90;;;;;;484006;246;27982;-72
2022/04/25 00:42:40;;;;;;;8.98;7.43;;;5.80;99.90;;;;;;483995;246;27594;-70
2022/04/25 00:44:41;;;;;;;9.98;8.98;;;5.80;99.90;;;;;;484012;246;27499;-71
2022/04/25 00:46:42;;;;;;;9.93;8.57;;;5.70;99.90;;;;;;484000;246;27567;-71
2022/04/25 00:48:43;;;;;;;9.45;8.48;;;5.70;99.90;;;;;;483994;246;27582;-70
2022/04/25 00:50:45;;;;;;;8.50;7.70;;;5.70;99.90;;;;;;484010;246;27994;-74
2022/04/25 00:52:46;;;;;;;10.27;8.18;;;5.80;99.90;;;;;;484003;246;27951;-71
2022/04/25 00:54:47;;;;;;;12.23;10.40;;;5.80;99.90;;;;;;483987;246;27528;-71
2022/04/25 00:56:49;;;;;;;13.32;11.50;;;5.60;99.90;;;;;;483988;246;27479;-70
2022/04/25 00:58:50;;;;;;;13.65;11.75;;;5.60;99.90;;;;;;484021;246;27539;-71
2022/04/25 01:00:51;;;;;;;11.20;10.05;;;5.60;99.90;;;;;;483996;246;27522;-72
2022/04/25 01:02:52;;;;;;;12.90;10.68;;;5.80;99.90;;;;;;483986;246;28013;-70
2022/04/25 01:04:53;;;;;;;10.93;9.82;;;5.90;99.90;;;;;;484000;242;27498;-71
2022/04/25 01:06:55;;;;;;;10.07;8.98;;;5.90;99.90;;;;;;484056;246;27510;-70
2022/04/25 01:08:56;;;;;;;10.68;9.57;;;6.00;99.90;;;;;;483984;246;27607;-70
2022/04/25 01:10:59;;;;;;;9.68;8.68;;;6.10;99.90;;;;;;484028;246;27590;-71
2022/04/25 01:12:58;;;;;;;9.07;8.10;;;6.10;99.90;;;;;;483888;246;27930;-71
2022/04/25 01:15:00;;;;;;;9.57;8.57;;;6.10;99.90;;;;;;483965;246;29474;-71
2022/04/25 01:17:02;;;;;;;10.00;8.95;;;5.90;99.90;;;;;;484037;246;27997;-70
2022/04/25 01:19:02;;;;;;;9.48;8.48;;;5.70;99.90;;;;;;483901;246;27512;-70
2022/04/25 01:21:06;;;;;;;10.55;8.60;;;5.70;99.90;;;;;;484040;246;27517;-70
2022/04/25 01:27:46;;;;;;;9.98;8.90;;;5.60;99.90;;;;;;484012;245;27536;-70
2022/04/25 01:29:47;;;;;;;9.38;8.15;;;5.60;99.90;;;;;;483875;246;27536;-76
2022/04/25 01:31:49;;;;;;;9.30;7.78;;;5.50;99.90;;;;;;484009;246;27589;-71
2022/04/25 01:33:50;;;;;;;8.25;7.37;;;5.50;99.90;;;;;;483989;246;27514;-72
2022/04/25 01:35:51;;;;;;;9.57;7.90;;;5.40;99.90;;;;;;483968;246;27972;-70
2022/04/25 01:37:53;;;;;;;8.30;7.47;;;5.40;99.90;;;;;;483985;246;29352;-71
2022/04/25 01:39:55;;;;;;;8.60;7.62;;;5.50;99.90;;;;;;484010;246;27587;-72
2022/04/25 01:41:55;;;;;;;7.15;6.43;;;5.50;99.90;;;;;;483983;246;27546;-70
2022/04/25 01:43:56;;;;;;;8.95;7.95;;;5.50;99.90;;;;;;484017;246;27522;-72
2022/04/25 01:45:58;;;;;;;8.90;7.47;;;5.40;99.90;;;;;;484010;246;27508;-70
2022/04/25 01:47:59;;;;;;;8.52;7.45;;;5.40;99.90;;;;;;483988;246;27558;-71
2022/04/25 01:50:00;;;;;;;7.53;6.77;;;5.40;99.90;;;;;;483988;246;28554;-73
2022/04/25 01:52:02;;;;;;;8.60;7.70;;;5.40;99.90;;;;;;483994;246;29286;-71
2022/04/25 01:54:03;;;;;;;10.88;8.50;;;5.50;99.90;;;;;;484004;246;27595;-71
2022/04/25 01:56:04;;;;;;;9.07;7.95;;;5.50;99.90;;;;;;484017;241;27629;-70
2022/04/25 01:58:05;;;;;;;10.95;8.75;;;5.50;99.90;;;;;;484002;246;27531;-71
2022/04/25 02:00:06;;;;;;;13.00;10.88;;;5.40;99.90;;;;;;484011;246;27616;-76
2022/04/25 02:02:08;;;;;;;12.70;11.05;;;5.30;99.90;;;;;;484016;246;27947;-71
2022/04/25 02:04:09;;;;;;;14.60;11.30;;;5.30;99.90;;;;;;484039;246;27981;-71
2022/04/25 02:06:10;;;;;;;12.20;9.93;;;5.40;99.90;;;;;;484011;246;27558;-71
2022/04/25 02:08:11;;;;;;;11.45;9.35;;;5.40;99.90;;;;;;483974;246;27512;-71
2022/04/25 02:10:13;;;;;;;12.10;9.68;;;5.40;99.90;;;;;;484003;246;27539;-70
2022/04/25 02:12:14;;;;;;;13.50;11.55;;;5.50;99.90;;;;;;484031;246;27482;-71
2022/04/25 02:14:15;;;;;;;13.25;11.25;;;5.40;99.90;;;;;;483984;246;28110;-71
2022/04/25 02:16:16;;;;;;;11.45;9.95;;;5.40;99.90;;;;;;483976;246;27396;-70
2022/04/25 02:18:19;;;;;;;11.88;10.00;;;5.60;99.90;;;;;;483917;246;27512;-71
2022/04/25 02:20:19;;;;;;;12.43;10.65;;;5.60;99.90;;;;;;483967;246;27523;-70
2022/04/25 02:22:20;;;;;;;10.60;9.32;;;5.60;99.90;;;;;;483866;246;27484;-71
2022/04/25 02:24:21;;;;;;;10.90;9.30;;;5.60;99.90;;;;;;483998;246;27997;-70
2022/04/25 02:26:23;;;;;;;10.07;9.07;;;5.60;99.90;;;;;;484000;246;28039;-71
2022/04/25 02:28:24;;;;;;;10.30;8.55;;;5.70;99.90;;;;;;483969;246;27512;-71
2022/04/25 02:30:25;;;;;;;9.05;8.07;;;5.70;99.90;;;;;;483956;246;27535;-70
2022/04/25 02:32:28;;;;;;;8.80;7.90;;;5.70;99.90;;;;;;483996;246;27504;-71
2022/04/25 02:34:31;;;;;;;11.82;10.10;;;5.70;99.90;;;;;;483945;246;27516;-71
2022/04/25 02:36:32;;;;;;;14.60;12.30;;;5.60;99.90;;;;;;484029;246;27991;-72
2022/04/25 02:38:33;;;;;;;15.05;11.80;;;5.50;99.90;;;;;;483950;246;28803;-70
2022/04/25 02:40:34;;;;;;;14.32;11.85;;;5.50;99.90;;;;;;483975;246;27512;-71
2022/04/25 02:42:36;;;;;;;17.08;13.70;;;5.50;99.90;;;;;;484010;246;27535;-74
2022/04/25 02:44:37;;;;;;;15.77;12.30;;;5.50;99.90;;;;;;484012;242;27485;-70
2022/04/25 02:46:38;;;;;;;14.95;11.90;;;5.60;99.90;;;;;;483996;246;28001;-71
2022/04/25 02:48:39;;;;;;;14.32;11.82;;;5.70;99.90;;;;;;483950;246;27551;-70
2022/04/25 02:50:41;;;;;;;15.18;12.35;;;5.60;99.90;;;;;;483983;246;27637;-71
2022/04/25 02:52:42;;;;;;;16.02;12.88;;;5.70;99.90;;;;;;483848;246;27605;-71
2022/04/25 02:54:43;;;;;;;12.88;10.85;;;5.80;99.90;;;;;;483999;246;28111;-71
2022/04/25 02:56:44;;;;;;;13.38;10.70;;;5.90;99.90;;;;;;483990;246;27633;-70
2022/04/25 02:58:46;;;;;;;11.73;10.40;;;6.00;99.90;;;;;;483981;246;27518;-70
2022/04/25 03:00:47;;;;;;;11.30;9.85;;;6.00;99.90;;;;;;483976;246;27510;-72
2022/04/25 03:02:48;;;;;;;11.70;9.63;;;6.00;99.90;;;;;;484010;246;27523;-75
2022/04/25 03:04:50;;;;;;;11.50;9.50;;;5.90;99.90;;;;;;483971;246;27954;-71
2022/04/25 03:06:51;;;;;;;12.18;10.02;;;6.00;99.90;;;;;;483992;246;29320;-71
2022/04/25 03:08:52;;;;;;;11.63;9.68;;;5.90;99.90;;;;;;483982;246;27479;-70
2022/04/25 03:10:54;;;;;;;10.93;9.45;;;5.80;99.90;;;;;;483981;246;27525;-70
2022/04/25 03:12:55;;;;;;;10.13;8.65;;;5.80;99.90;;;;;;483979;246;27535;-72
2022/04/25 03:14:56;;;;;;;10.32;9.18;;;5.70;99.90;;;;;;484002;246;27529;-72
2022/04/25 03:16:58;;;;;;;12.25;9.32;;;5.60;99.90;;;;;;483982;246;28369;-71
2022/04/25 03:18:58;;;;;;;9.80;8.70;;;5.50;99.90;;;;;;483993;246;27478;-70
2022/04/25 03:21:00;;;;;;;10.73;8.20;;;5.40;99.90;;;;;;484004;246;27575;-71
2022/04/25 03:23:01;;;;;;;12.68;10.02;;;5.40;99.90;;;;;;483988;246;27523;-76
2022/04/25 03:25:02;;;;;;;14.77;11.57;;;5.40;99.90;;;;;;483993;246;27501;-70
2022/04/25 03:27:03;;;;;;;15.48;12.15;;;5.40;99.90;;;;;;483999;246;27971;-73
2022/04/25 03:29:05;;;;;;;13.27;11.15;;;5.50;99.90;;;;;;484000;246;27945;-70
2022/04/25 03:31:06;;;;;;;12.82;10.45;;;5.50;99.90;;;;;;484010;242;27516;-71
2022/04/25 03:33:10;;;;;;;12.68;10.30;;;5.60;99.90;;;;;;483824;246;27515;-73
2022/04/25 03:35:09;;;;;;;10.98;9.57;;;5.70;99.90;;;;;;483714;246;27488;-71
2022/04/25 03:37:13;;;;;;;11.32;9.82;;;5.70;99.90;;;;;;483994;246;27537;-71
2022/04/25 03:39:11;;;;;;;9.45;8.45;;;5.80;99.90;;;;;;483759;246;27938;-70
2022/04/25 03:41:12;;;;;;;10.30;8.73;;;5.80;99.90;;;;;;484032;246;27464;-71
2022/04/25 03:43:15;;;;;;;10.07;8.70;;;5.80;99.90;;;;;;484053;246;27571;-73
2022/04/25 03:45:18;;;;;;;11.52;9.07;;;5.80;99.90;;;;;;483910;246;27576;-70
2022/04/25 03:47:19;;;;;;;9.20;8.07;;;5.80;99.90;;;;;;484029;246;27581;-70
2022/04/25 03:49:21;;;;;;;11.73;9.43;;;5.80;99.90;;;;;;484009;246;27990;-71
2022/04/25 03:51:22;;;;;;;10.32;8.85;;;5.80;99.90;;;;;;484010;246;28049;-72
2022/04/25 03:53:23;;;;;;;9.85;8.40;;;5.80;99.90;;;;;;484021;246;27453;-70
2022/04/25 03:57:47;;;;;;;8.95;7.95;;;5.80;99.90;;;;;;484006;245;27561;-71
2022/04/25 03:59:46;;;;;;;9.18;8.00;;;5.90;99.90;;;;;;483651;246;27516;-71
2022/04/25 04:01:46;;;;;;;8.07;7.28;;;5.90;99.90;;;;;;483958;246;27626;-70
2022/04/25 04:03:48;;;;;;;12.52;9.20;;;6.00;99.90;;;;;;484001;246;27603;-72
2022/04/25 04:05:49;;;;;;;10.07;8.73;;;6.10;99.90;;;;;;484006;246;27496;-71
2022/04/25 04:07:50;;;;;;;9.75;8.45;;;6.10;99.90;;;;;;484020;246;28027;-71
2022/04/25 04:09:52;;;;;;;10.85;8.77;;;6.10;99.90;;;;;;484005;246;28027;-71
2022/04/25 04:11:53;;;;;;;10.82;8.57;;;6.00;99.90;;;;;;484013;246;27515;-72
2022/04/25 04:13:55;;;;;;;9.40;8.40;;;5.90;99.90;;;;;;484046;246;27525;-74
2022/04/25 04:15:56;;;;;;;9.65;8.05;;;5.80;99.90;;;;;;483971;246;27869;-70
2022/04/25 04:17:57;;;;;;;9.32;7.90;;;5.80;99.90;;;;;;483996;246;27530;-71
2022/04/25 04:19:58;;;;;;;9.88;8.40;;;5.80;99.90;;;;;;483999;246;27940;-70
2022/04/25 04:22:03;;;;;;;9.68;8.27;;;5.80;99.90;;;;;;484007;246;28111;-71
2022/04/25 04:24:01;;;;;;;8.93;7.95;;;5.70;99.90;;;;;;483590;246;27634;-74
2022/04/25 04:26:02;;;;;;;9.93;8.18;;;5.70;99.90;;;;;;484002;246;27489;-70
2022/04/25 04:28:06;;;;;;;7.80;7.05;;;5.60;99.90;;;;;;484003;246;27539;-71
2022/04/25 04:30:06;;;;;;;8.85;7.95;;;5.70;99.90;;;;;;482013;243;27565;-70
2022/04/25 04:32:08;;;;;;;9.60;7.55;;;5.80;99.90;;;;;;489545;243;27407;-71
2022/04/25 04:34:09;;;;;;;8.00;7.20;;;5.80;99.90;;;;;;489637;241;27411;-71
2022/04/25 04:36:22;;;;;;;9.23;7.85;;;5.80;99.90;;;;;;489621;241;27893;-74
2022/04/25 04:38:21;;;;;;;8.55;7.65;;;5.80;99.90;;;;;;489532;242;27487;-72
2022/04/25 04:40:28;;;;;;;8.20;7.40;;;5.80;99.90;;;;;;489637;241;27842;-71
2022/04/25 04:42:29;;;;;;;8.98;8.05;;;5.80;99.90;;;;;;489634;241;27900;-71
2022/04/25 04:44:31;;;;;;;8.40;7.53;;;5.90;99.90;;;;;;489667;241;27399;-71
2022/04/25 04:46:32;;;;;;;9.18;7.95;;;5.90;99.90;;;;;;489613;241;27597;-71
2022/04/25 04:48:33;;;;;;;8.50;7.45;;;6.00;99.90;;;;;;489614;241;27450;-72
2022/04/25 04:50:35;;;;;;;8.35;7.35;;;6.00;99.90;;;;;;489596;241;27372;-71
2022/04/25 04:52:36;;;;;;;11.25;9.75;;;6.00;99.90;;;;;;489610;241;27408;-71
2022/04/25 04:54:37;;;;;;;11.95;9.43;;;6.00;99.90;;;;;;489622;238;28044;-73
2022/04/25 04:56:42;;;;;;;12.30;9.93;;;5.90;99.90;;;;;;489602;240;27909;-71
2022/04/25 04:58:43;;;;;;;13.05;10.57;;;5.80;99.90;;;;;;489353;241;27503;-70
2022/04/25 05:00:44;;;;;;;15.07;12.05;;;5.70;99.90;;;;;;488780;236;27926;-71
2022/04/25 05:02:45;;;;;;;20.50;13.98;;;5.60;99.90;;;;;;489575;241;27368;-72
2022/04/25 05:04:47;;;;;;;17.80;13.43;;;5.60;99.90;;;;;;489611;241;27326;-71
2022/04/25 05:06:48;;;;;;;17.33;14.10;;;5.70;99.90;;;;;;489603;241;27435;-71
2022/04/25 05:08:49;;;;;;;17.08;14.35;;;5.80;99.90;;;;;;489596;240;27421;-71
2022/04/25 05:10:51;;;;;;;20.40;15.85;;;5.90;99.90;;;;;;489615;241;27805;-72
2022/04/25 05:12:53;;;;;;;17.10;13.62;;;5.90;99.90;;;;;;489595;241;27379;-76
2022/04/25 05:14:54;;;;;;;16.35;13.15;;;5.90;99.90;;;;;;489552;241;27378;-71
2022/04/25 05:16:54;;;;;;;16.12;13.15;;;6.00;99.90;;;;;;489578;241;27383;-71
2022/04/25 05:18:56;;;;;;;16.58;14.68;;;6.10;99.90;;;;;;489586;241;27897;-71
2022/04/25 05:20:57;;;;;;;18.75;13.95;;;6.10;99.90;;;;;;489579;241;27900;-71
2022/04/25 05:22:58;;;;;;;17.35;13.57;;;6.20;99.90;;;;;;489602;241;27385;-74
2022/04/25 05:24:59;;;;;;;19.05;13.27;;;6.20;99.90;;;;;;489604;241;27347;-70
2022/04/25 05:27:01;;;;;;;12.95;11.32;;;6.30;99.90;;;;;;489527;241;27446;-71
2022/04/25 05:29:02;;;;;;;14.03;11.23;;;6.40;99.90;;;;;;489541;241;27825;-71
2022/04/25 05:31:03;;;;;;;14.18;11.60;;;6.40;99.90;;;;;;489524;241;29116;-71
2022/04/25 05:33:05;;;;;;;13.00;11.00;;;6.50;99.90;;;;;;489508;241;27371;-77
2022/04/25 05:35:06;;;;;;;14.23;11.05;;;6.40;99.90;;;;;;489553;241;27340;-71
2022/04/25 05:37:07;;;;;;;10.83;9.30;;;6.40;99.90;;;;;;489556;241;27410;-71
2022/04/25 05:39:08;;;;;;;13.07;10.02;;;6.30;99.90;;;;;;489557;241;28827;-71
2022/04/25 05:41:09;;;;;;;12.02;9.52;;;6.40;99.90;;;;;;489555;241;27826;-71
2022/04/25 05:43:11;;;;;;;11.35;9.15;;;6.40;99.90;;;;;;489636;241;27463;-75
2022/04/25 05:45:12;;;;;;;11.87;9.57;;;6.50;99.90;;;;;;489622;241;27375;-71
2022/04/25 05:47:13;;;;;;;9.30;7.87;;;6.50;99.90;;;;;;489609;241;28480;-71
2022/04/25 05:53:54;;;;;;;9.87;8.00;;;6.70;99.90;;;;;;489586;239;27686;-71
2022/04/25 05:55:55;;;;;;;9.83;8.47;;;6.90;99.90;;;;;;489600;241;27850;-74
2022/04/25 05:57:56;;;;;;;10.10;7.80;;;7.00;99.90;;;;;;489609;241;28003;-71
2022/04/25 05:59:58;;;;;;;10.50;9.10;;;7.10;99.90;;;;;;489611;241;27880;-71
2022/04/25 06:01:59;;;;;;;8.67;7.77;;;7.30;99.90;;;;;;489599;241;27687;-71
2022/04/25 06:04:00;;;;;;;9.80;8.80;;;7.30;99.90;;;;;;489611;241;28440;-71
2022/04/25 06:06:01;;;;;;;12.33;11.13;;;7.40;99.90;;;;;;489450;241;28430;-72
2022/04/25 06:08:03;;;;;;;12.40;11.30;;;7.60;99.90;;;;;;489626;241;27813;-71
2022/04/25 06:10:04;;;;;;;11.60;10.60;;;7.70;99.90;;;;;;489634;241;27778;-72
2022/04/25 06:12:05;;;;;;;11.83;10.70;;;7.80;99.90;;;;;;489572;241;27802;-71
2022/04/25 06:14:06;;;;;;;11.40;10.30;;;8.00;99.90;;;;;;489171;241;27811;-71
2022/04/25 06:16:08;;;;;;;11.50;10.50;;;8.10;99.90;;;;;;489026;241;27853;-73
2022/04/25 06:18:09;;;;;;;12.33;11.23;;;8.20;99.90;;;;;;489623;241;27821;-71
2022/04/25 06:20:10;;;;;;;11.60;10.60;;;8.20;99.90;;;;;;489626;241;27698;-70
2022/04/25 06:22:11;;;;;;;11.80;10.80;;;8.30;99.90;;;;;;489638;241;28297;-71
2022/04/25 06:24:13;;;;;;;10.50;9.60;;;8.30;99.90;;;;;;489631;241;28251;-71
2022/04/25 06:26:14;;;;;;;10.83;9.93;;;8.30;99.90;;;;;;489632;241;27838;-74
2022/04/25 06:28:15;;;;;;;10.80;9.90;;;8.40;99.90;;;;;;489644;241;27744;-71
2022/04/25 06:30:16;;;;;;;11.90;10.87;;;8.60;99.90;;;;;;489586;241;27848;-71
2022/04/25 06:32:18;;;;;;;11.77;10.00;;;8.80;99.90;;;;;;489635;241;27698;-71
2022/04/25 06:34:19;;;;;;;11.40;10.40;;;9.00;99.90;;;;;;489651;241;27820;-71
2022/04/25 06:36:20;;;;;;;11.27;10.17;;;9.10;99.90;;;;;;489656;241;27632;-73
2022/04/25 06:38:21;;;;;;;12.60;11.40;;;9.30;99.90;;;;;;489616;241;27823;-71
2022/04/25 06:40:23;;;;;;;12.40;11.27;;;9.30;99.90;;;;;;489641;241;27885;-72
2022/04/25 06:42:25;;;;;;;14.27;12.90;;;9.20;99.90;;;;;;489643;241;29213;-71
2022/04/25 06:44:25;;;;;;;13.50;12.20;;;9.00;99.90;;;;;;489514;241;28253;-71
2022/04/25 06:46:28;;;;;;;14.50;13.00;;;8.80;99.90;;;;;;489618;241;27821;-73
2022/04/25 06:48:28;;;;;;;14.60;13.30;;;8.60;99.90;;;;;;489613;241;27985;-71
2022/04/25 06:50:29;;;;;;;13.50;12.40;;;8.50;99.90;;;;;;489605;242;27724;-71
2022/04/25 06:52:31;;;;;;;11.87;10.87;;;8.60;99.90;;;;;;489637;241;28004;-71
2022/04/25 06:54:31;;;;;;;13.60;12.40;;;8.70;99.90;;;;;;489628;241;27577;-71
2022/04/25 06:56:33;;;;;;;14.53;13.37;;;8.70;99.90;;;;;;489602;241;27508;-72
2022/04/25 06:58:34;;;;;;;12.53;11.53;;;8.90;99.90;;;;;;489554;241;27587;-71
2022/04/25 07:00:35;;;;;;;13.33;12.23;;;9.00;99.90;;;;;;489426;241;28437;-71
2022/04/25 07:02:36;;;;;;;13.10;12.00;;;9.20;99.90;;;;;;488561;241;28818;-73
2022/04/25 07:04:38;;;;;;;12.53;11.33;;;9.40;99.90;;;;;;487705;244;27779;-72
2022/04/25 07:06:39;;;;;;;11.30;10.40;;;9.50;99.90;;;;;;487659;244;27633;-72
2022/04/25 07:08:41;;;;;;;11.57;10.40;;;9.60;99.90;;;;;;487698;244;28013;-72
2022/04/25 07:10:42;;;;;;;11.00;10.00;;;9.70;99.90;;;;;;487798;244;27713;-72
2022/04/25 07:12:44;;;;;;;10.77;9.80;;;9.70;99.90;;;;;;487826;244;28242;-72
2022/04/25 07:14:45;;;;;;;10.30;9.30;;;9.60;99.90;;;;;;487802;244;27943;-73
2022/04/25 07:16:48;;;;;;;12.23;10.40;;;9.60;99.90;;;;;;487816;244;27981;-72
2022/04/25 07:18:47;;;;;;;11.20;10.07;;;9.60;99.90;;;;;;487675;243;27795;-72
2022/04/25 07:20:49;;;;;;;12.13;11.13;;;9.70;99.90;;;;;;487837;244;27913;-71
2022/04/25 07:29:33;;;;;;;13.03;11.77;;;10.10;99.90;;;;;;487829;243;27695;-72
2022/04/25 07:31:34;;;;;;;14.03;12.73;;;10.00;99.90;;;;;;487839;244;28004;-72
2022/04/25 07:33:36;;;;;;;13.23;12.00;;;10.00;99.90;;;;;;487833;244;28004;-71
2022/04/25 07:35:39;;;;;;;12.20;11.00;;;10.10;99.90;;;;;;487855;244;27947;-71
2022/04/25 07:37:39;;;;;;;11.50;10.40;;;10.30;99.90;;;;;;487570;244;27836;-71
2022/04/25 07:39:39;;;;;;;11.47;10.37;;;10.50;99.90;;;;;;487750;244;29003;-72
2022/04/25 07:41:44;;;;;;;11.07;10.07;;;10.70;99.90;;;;;;487865;244;28392;-71
2022/04/25 07:43:43;;;;;;;11.60;10.60;;;10.70;99.90;;;;;;487652;243;28063;-71
2022/04/25 07:45:43;;;;;;;11.63;10.70;;;10.70;99.90;;;;;;487776;243;28062;-71
2022/04/25 07:47:45;;;;;;;10.67;9.77;;;10.70;99.90;;;;;;487839;244;28071;-72
2022/04/25 07:49:46;;;;;;;10.83;9.90;;;10.80;99.90;;;;;;487845;244;28438;-71
2022/04/25 07:51:48;;;;;;;10.03;9.23;;;11.00;99.90;;;;;;487873;244;28507;-71
2022/04/25 07:53:48;;;;;;;9.00;8.20;;;11.10;99.90;;;;;;487838;244;28937;-72
2022/04/25 07:55:49;;;;;;;10.10;9.30;;;11.10;99.90;;;;;;487849;244;28519;-71
2022/04/25 07:57:51;;;;;;;11.17;10.30;;;11.20;99.90;;;;;;487800;244;28284;-71
2022/04/25 07:59:52;;;;;;;10.93;10.03;;;11.30;99.90;;;;;;487810;244;28148;-71
2022/04/25 08:01:53;;;;;;;10.20;9.40;;;11.30;99.90;;;;;;487843;244;28129;-71
2022/04/25 08:03:54;;;;;;;10.87;9.93;;;11.30;99.90;;;;;;487878;244;28835;-72
2022/04/25 08:05:56;;;;;;;11.13;10.20;;;11.30;99.90;;;;;;487852;244;28781;-71
2022/04/25 08:07:57;;;;;;;10.93;9.97;;;11.30;99.90;;;;;;487882;244;27921;-71
2022/04/25 08:09:58;;;;;;;10.23;9.40;;;11.30;99.90;;;;;;487892;244;28016;-71
2022/04/25 08:18:58;;;;;;;9.57;8.73;;;11.30;99.90;;;;;;487843;243;27897;-71
2022/04/25 08:21:00;;;;;;;9.73;8.93;;;11.20;99.90;;;;;;487840;244;28389;-71
2022/04/25 08:23:00;;;;;;;9.10;8.30;;;11.20;99.90;;;;;;487766;244;29058;-72
2022/04/25 08:25:03;;;;;;;9.23;8.37;;;11.30;99.90;;;;;;487868;244;28789;-71
2022/04/25 08:27:03;;;;;;;9.93;9.13;;;11.40;99.90;;;;;;487768;244;28939;-73
2022/04/25 08:29:04;;;;;;;9.00;8.30;;;11.40;99.90;;;;;;487824;244;28004;-71
2022/04/25 08:31:09;;;;;;;9.10;8.30;;;11.50;99.90;;;;;;487830;244;28798;-71
2022/04/25 08:33:08;;;;;;;9.20;8.50;;;11.50;99.90;;;;;;487668;243;28297;-71
2022/04/25 08:35:12;;;;;;;9.63;8.70;;;11.40;99.90;;;;;;487804;244;27933;-71
2022/04/25 08:37:09;;;;;;;11.80;10.60;;;11.50;99.90;;;;;;487235;243;27953;-71
2022/04/25 08:39:10;;;;;;;11.40;10.40;;;11.50;99.90;;;;;;487837;244;28237;-71
2022/04/25 08:41:12;;;;;;;11.20;10.10;;;11.70;99.90;;;;;;487836;244;28361;-71
2022/04/25 08:43:13;;;;;;;11.33;10.33;;;11.90;99.90;;;;;;487800;244;28842;-71
2022/04/25 08:45:14;;;;;;;10.67;9.77;;;12.20;99.90;;;;;;487835;244;28556;-71
2022/04/25 08:47:16;;;;;;;11.70;10.70;;;12.20;99.90;;;;;;487822;244;28037;-71
2022/04/25 08:49:17;;;;;;;11.43;10.43;;;12.30;99.90;;;;;;487826;244;28042;-70
2022/04/25 08:51:18;;;;;;;13.30;12.00;;;12.40;99.90;;;;;;487828;244;28677;-71
2022/04/25 08:53:19;;;;;;;12.60;11.40;;;12.30;99.90;;;;;;487857;244;28733;-75
2022/04/25 08:55:21;;;;;;;11.23;10.17;;;12.30;99.90;;;;;;487830;244;28229;-71
2022/04/25 08:57:22;;;;;;;10.37;9.47;;;12.60;99.90;;;;;;487840;244;28155;-72
2022/04/25 08:59:23;;;;;;;9.93;9.03;;;12.80;99.90;;;;;;487826;244;28209;-71
2022/04/25 09:01:24;;;;;;;9.00;8.17;;;12.80;99.90;;;;;;487836;244;28190;-72
2022/04/25 09:03:26;;;;;;;10.80;9.80;;;12.70;99.90;;;;;;487835;244;28203;-73
2022/04/25 09:05:27;;;;;;;10.93;10.00;;;12.60;99.90;;;;;;487872;244;28161;-71
2022/04/25 09:07:28;;;;;;;10.63;9.73;;;12.40;99.90;;;;;;487839;244;28150;-71
2022/04/25 09:09:29;;;;;;;9.47;8.70;;;12.40;99.90;;;;;;487828;244;28140;-70
2022/04/25 09:13:51;;;;;;;9.30;8.50;;;12.20;99.90;;;;;;487826;236;28669;-71
2022/04/25 09:15:52;;;;;;;9.87;8.87;;;12.20;99.90;;;;;;487857;241;28050;-71
2022/04/25 09:17:56;;;;;;;8.40;7.70;;;12.20;99.90;;;;;;487866;244;28039;-71
2022/04/25 09:19:57;;;;;;;9.33;8.63;;;12.20;99.90;;;;;;487846;244;28486;-71
2022/04/25 09:21:58;;;;;;;9.83;9.07;;;12.20;99.90;;;;;;487854;244;28538;-73
2022/04/25 09:24:00;;;;;;;8.37;7.67;;;12.20;99.90;;;;;;487827;244;28715;-71
2022/04/25 09:26:02;;;;;;;9.90;9.17;;;;;;;;;;487825;244;28113;-73
2022/04/25 09:28:03;;;;;;;8.73;8.13;;;12.30;99.90;;;;;;486597;244;35803;-71
2022/04/25 09:30:05;;;;;;;9.60;8.80;;;12.50;99.90;;;;;;487846;244;27408;-72
2022/04/25 09:32:09;;;;;;;9.23;8.43;;;12.70;99.90;;;;;;487819;244;28400;-71
2022/04/25 09:34:07;;;;;;;8.03;7.33;;;12.80;99.90;;;;;;487656;241;28382;-71
2022/04/25 09:36:08;;;;;;;9.67;8.83;;;12.80;99.90;;;;;;487822;244;28724;-74
2022/04/25 09:38:10;;;;;;;9.13;8.33;;;12.90;99.90;;;;;;487816;244;28591;-71
2022/04/25 09:40:11;;;;;;;9.20;8.40;;;12.90;99.90;;;;;;487799;244;28289;-72
2022/04/25 09:42:14;;;;;;;8.47;7.87;;;13.00;99.90;;;;;;487796;244;28073;-71
2022/04/25 09:44:13;;;;;;;8.07;7.40;;;13.20;99.90;;;;;;487755;244;28166;-72
2022/04/25 09:46:15;;;;;;;8.33;7.60;;;13.60;99.90;;;;;;487837;244;28447;-72
2022/04/25 09:48:16;;;;;;;7.87;7.27;;;14.10;99.90;;;;;;487557;244;28753;-71
2022/04/25 09:50:17;;;;;;;7.97;7.37;;;14.20;99.90;;;;;;487810;244;28711;-71
2022/04/25 09:52:20;;;;;;;8.50;7.80;;;14.40;99.90;;;;;;487811;241;28255;-72
2022/04/25 09:54:20;;;;;;;7.30;6.80;;;14.40;99.90;;;;;;487740;243;28795;-71
2022/04/25 09:56:21;;;;;;;7.87;7.23;;;14.50;99.90;;;;;;487808;244;29179;-72
2022/04/25 09:58:23;;;;;;;7.40;6.80;;;14.50;99.90;;;;;;487821;244;29143;-70
2022/04/25 10:00:23;;;;;;;7.83;7.03;;;14.30;99.90;;;;;;487784;243;29160;-72
2022/04/25 10:02:25;;;;;;;8.20;6.37;;;14.00;99.90;;;;;;487830;244;29202;-72
2022/04/25 10:04:26;;;;;;;7.10;6.60;;;13.70;99.90;;;;;;487804;244;28677;-72
2022/04/25 10:06:27;;;;;;;7.63;7.03;;;13.60;99.90;;;;;;487784;244;28804;-72
2022/04/25 10:08:28;;;;;;;8.30;7.50;;;13.40;99.90;;;;;;487831;244;28656;-74
2022/04/25 10:10:30;;;;;;;7.83;7.23;;;13.10;99.90;;;;;;487807;244;28702;-73
2022/04/25 10:12:31;;;;;;;9.27;8.30;;;13.00;99.90;;;;;;487833;244;28750;-71
2022/04/25 10:14:32;;;;;;;9.53;8.73;;;12.80;99.90;;;;;;487828;244;28295;-72
2022/04/25 10:16:34;;;;;;;8.63;7.83;;;12.60;99.90;;;;;;487843;244;28331;-73
2022/04/25 10:18:36;;;;;;;9.07;8.20;;;12.50;99.90;;;;;;487823;244;28253;-71
2022/04/25 10:20:36;;;;;;;9.13;8.33;;;12.50;99.90;;;;;;487784;243;28159;-73
2022/04/25 10:22:38;;;;;;;8.23;7.53;;;;;;;;;;487826;244;28390;-71
2022/04/25 10:24:40;;;;;;;10.17;9.27;;;12.10;99.90;;;;;;487854;244;26616;-72
2022/04/25 10:26:41;;;;;;;12.00;10.90;;;11.30;99.90;;;;;;487838;244;28777;-71
2022/04/25 10:28:42;;;;;;;12.43;10.97;;;10.90;99.90;;;;;;487719;244;28494;-72
2022/04/25 10:30:43;;;;;;;12.83;11.47;;;10.50;99.90;;;;;;487772;244;29128;-72
2022/04/25 10:32:45;;;;;;;14.60;13.40;;;10.00;99.90;;;;;;487779;244;28515;-71
2022/04/25 10:34:46;;;;;;;13.97;12.57;;;9.80;99.90;;;;;;487814;244;27925;-74
2022/04/25 10:36:47;;;;;;;14.80;13.50;;;9.40;99.90;;;;;;487805;244;28170;-71
2022/04/25 10:38:48;;;;;;;16.13;14.93;;;9.10;99.90;;;;;;487813;244;27793;-72
2022/04/25 10:45:29;;;;;;;11.60;9.83;;;8.50;99.90;;;;;;463097;256;27937;-69
2022/04/25 10:47:30;;;;;;;24.57;13.53;;;8.40;99.90;;;;;;463100;257;28028;-71
2022/04/25 10:49:32;;;;;;;18.07;9.60;;;8.50;99.90;;;;;;463109;257;27536;-70
2022/04/25 10:51:33;;;;;;;10.47;9.70;;;8.50;99.90;;;;;;463099;257;27944;-71
2022/04/25 10:53:34;;;;;;;9.40;8.60;;;8.40;99.90;;;;;;463095;257;29362;-71
2022/04/25 10:55:38;;;;;;;11.40;10.50;;;8.50;99.90;;;;;;463065;257;28412;-71
2022/04/25 10:57:37;;;;;;;10.23;9.63;;;8.50;99.90;;;;;;463056;257;28461;-72
2022/04/25 10:59:38;;;;;;;9.57;8.77;;;8.70;99.90;;;;;;463060;257;27531;-71
2022/04/25 11:01:39;;;;;;;9.93;9.17;;;8.70;99.90;;;;;;463070;257;28006;-71